createdAt,value
2017-12-21T00:00:15.366Z,7.50
2017-12-21T00:02:43.565Z,7.60
2017-12-21T00:05:11.783Z,7.50
2017-12-21T00:07:40.750Z,7.50
2017-12-21T00:10:08.958Z,7.50
2017-12-21T00:12:36.366Z,7.50
2017-12-21T00:15:03.810Z,7.50
2017-12-21T00:17:32.020Z,7.50
2017-12-21T00:19:59.418Z,7.50
2017-12-21T00:22:39.616Z,7.50
2017-12-21T00:25:07.026Z,7.50
2017-12-21T00:27:34.438Z,7.50
2017-12-21T00:30:02.610Z,7.50
2017-12-21T00:32:30.822Z,7.50
2017-12-21T00:34:58.994Z,7.50
2017-12-21T00:37:27.225Z,7.50
2017-12-21T00:39:54.638Z,7.50
2017-12-21T00:42:22.812Z,7.50
2017-12-21T00:44:50.220Z,7.50
2017-12-21T00:47:17.688Z,7.60
2017-12-21T00:49:45.098Z,7.50
2017-12-21T00:52:12.514Z,7.60
2017-12-21T00:54:40.732Z,7.60
2017-12-21T00:57:08.201Z,7.50
2017-12-21T00:59:35.593Z,7.60
2017-12-21T01:02:03.058Z,7.60
2017-12-21T01:04:30.421Z,7.50
2017-12-21T01:06:57.849Z,7.60
2017-12-21T01:09:25.325Z,7.60
2017-12-21T01:11:52.744Z,7.60
2017-12-21T01:14:20.273Z,7.60
2017-12-21T01:16:47.708Z,7.60
2017-12-21T01:19:15.919Z,7.60
2017-12-21T01:21:43.337Z,7.60
2017-12-21T01:24:11.513Z,7.60
2017-12-21T01:26:38.968Z,7.50
2017-12-21T01:29:06.379Z,7.60
2017-12-21T01:31:33.786Z,7.60
2017-12-21T01:34:01.250Z,7.60
2017-12-21T01:36:28.672Z,7.60
2017-12-21T01:38:56.177Z,7.60
2017-12-21T01:41:23.615Z,7.60
2017-12-21T01:43:51.070Z,7.60
2017-12-21T01:46:18.478Z,7.60
2017-12-21T01:48:45.897Z,7.60
2017-12-21T01:51:13.329Z,7.60
2017-12-21T01:53:40.798Z,7.60
2017-12-21T01:56:08.289Z,7.70
2017-12-21T01:58:35.699Z,7.60
2017-12-21T02:01:03.874Z,7.60
2017-12-21T02:03:31.300Z,7.60
2017-12-21T02:05:58.745Z,7.60
2017-12-21T02:08:26.163Z,7.60
2017-12-21T02:10:53.592Z,7.70
2017-12-21T02:13:21.020Z,7.70
2017-12-21T02:15:49.215Z,7.70
2017-12-21T02:18:17.398Z,7.70
2017-12-21T02:20:45.582Z,7.70
2017-12-21T02:23:13.762Z,7.70
2017-12-21T02:25:41.168Z,7.70
2017-12-21T02:28:08.630Z,7.70
2017-12-21T02:30:36.111Z,7.70
2017-12-21T02:33:03.573Z,7.70
2017-12-21T02:35:31.742Z,7.80
2017-12-21T02:37:59.200Z,7.70
2017-12-21T02:40:27.375Z,7.70
2017-12-21T02:42:54.883Z,7.70
2017-12-21T02:45:22.385Z,7.80
2017-12-21T02:47:49.805Z,7.70
2017-12-21T02:50:17.304Z,7.80
2017-12-21T02:52:44.706Z,7.80
2017-12-21T02:55:12.231Z,7.70
2017-12-21T02:57:39.703Z,7.70
2017-12-21T03:00:07.097Z,7.80
2017-12-21T03:02:34.511Z,7.80
2017-12-21T03:05:02.006Z,7.70
2017-12-21T03:07:29.421Z,7.80
2017-12-21T03:09:56.957Z,7.80
2017-12-21T03:12:24.358Z,7.70
2017-12-21T03:14:51.778Z,7.70
2017-12-21T03:17:19.242Z,7.70
2017-12-21T03:19:46.665Z,7.70
2017-12-21T03:22:14.184Z,7.70
2017-12-21T03:24:41.662Z,7.70
2017-12-21T03:27:09.086Z,7.70
2017-12-21T03:29:37.316Z,7.80
2017-12-21T03:32:04.726Z,7.80
2017-12-21T03:34:32.145Z,7.70
2017-12-21T03:36:59.614Z,7.80
2017-12-21T03:39:27.054Z,7.80
2017-12-21T03:41:55.227Z,7.80
2017-12-21T03:44:22.647Z,7.70
2017-12-21T03:46:50.061Z,7.80
2017-12-21T03:49:17.572Z,7.80
2017-12-21T03:51:45.044Z,7.80
2017-12-21T03:54:12.453Z,7.80
2017-12-21T03:56:39.881Z,7.80
2017-12-21T03:59:07.346Z,7.80
2017-12-21T04:01:34.778Z,7.80
2017-12-21T04:04:02.975Z,7.80
2017-12-21T04:06:31.157Z,7.90
2017-12-21T04:08:59.334Z,7.80
2017-12-21T04:11:27.524Z,7.80
2017-12-21T04:13:54.955Z,7.80
2017-12-21T04:16:22.417Z,7.90
2017-12-21T04:18:49.858Z,7.80
2017-12-21T04:21:17.321Z,7.80
2017-12-21T04:23:44.794Z,7.80
2017-12-21T04:26:12.222Z,7.80
2017-12-21T04:28:39.646Z,7.90
2017-12-21T04:31:07.055Z,7.80
2017-12-21T04:33:34.486Z,7.90
2017-12-21T04:36:01.906Z,7.90
2017-12-21T04:38:30.090Z,7.80
2017-12-21T04:40:58.312Z,7.90
2017-12-21T04:43:25.750Z,7.90
2017-12-21T04:48:20.155Z,7.90
2017-12-21T04:50:47.554Z,7.90
2017-12-21T04:53:15.730Z,7.90
2017-12-21T04:55:43.137Z,7.90
2017-12-21T04:58:10.598Z,7.90
2017-12-21T05:00:38.075Z,7.90
2017-12-21T05:03:05.517Z,7.90
2017-12-21T05:05:33.711Z,7.90
2017-12-21T05:08:01.146Z,7.90
2017-12-21T05:10:29.336Z,7.90
2017-12-21T05:12:57.509Z,7.90
2017-12-21T05:15:24.958Z,7.90
2017-12-21T05:17:52.374Z,7.90
2017-12-21T05:20:20.586Z,7.90
2017-12-21T05:22:48.045Z,7.90
2017-12-21T05:25:15.487Z,8.00
2017-12-21T05:27:43.707Z,8.00
2017-12-21T05:30:11.134Z,8.00
2017-12-21T05:32:39.315Z,8.00
2017-12-21T05:35:06.748Z,8.00
2017-12-21T05:37:34.149Z,8.00
2017-12-21T05:40:01.574Z,8.00
2017-12-21T05:42:29.021Z,8.00
2017-12-21T05:44:56.807Z,8.00
2017-12-21T05:47:24.392Z,8.00
2017-12-21T05:49:51.908Z,8.00
2017-12-21T05:52:19.575Z,8.10
2017-12-21T05:54:47.773Z,8.10
2017-12-21T05:57:15.211Z,8.10
2017-12-21T05:59:42.647Z,8.10
2017-12-21T06:02:10.108Z,8.10
2017-12-21T06:04:37.588Z,8.10
2017-12-21T06:07:04.997Z,8.10
2017-12-21T06:09:33.950Z,8.10
2017-12-21T06:12:01.414Z,8.10
2017-12-21T06:14:28.842Z,8.10
2017-12-21T06:16:56.272Z,8.10
2017-12-21T06:19:23.832Z,8.10
2017-12-21T06:21:51.303Z,8.10
2017-12-21T06:24:18.774Z,8.10
2017-12-21T06:26:46.183Z,8.20
2017-12-21T06:29:13.602Z,8.20
2017-12-21T06:31:41.028Z,8.20
2017-12-21T06:34:08.450Z,8.20
2017-12-21T06:36:35.857Z,8.10
2017-12-21T06:39:03.295Z,8.10
2017-12-21T06:41:30.750Z,8.10
2017-12-21T06:43:58.176Z,8.10
2017-12-21T06:46:26.370Z,8.10
2017-12-21T06:48:54.562Z,8.10
2017-12-21T06:51:22.827Z,8.10
2017-12-21T06:53:50.194Z,8.10
2017-12-21T06:56:17.616Z,8.10
2017-12-21T06:58:45.090Z,8.10
2017-12-21T07:01:12.521Z,8.10
2017-12-21T07:03:39.950Z,8.10
2017-12-21T07:06:07.372Z,8.10
2017-12-21T07:08:34.793Z,8.10
2017-12-21T07:11:02.313Z,8.10
2017-12-21T07:13:29.726Z,8.10
2017-12-21T07:15:57.183Z,8.10
2017-12-21T07:18:24.590Z,8.10
2017-12-21T07:20:52.762Z,8.10
2017-12-21T07:23:20.215Z,8.10
2017-12-21T07:25:47.766Z,8.10
2017-12-21T07:28:15.146Z,8.10
2017-12-21T07:30:42.582Z,8.10
2017-12-21T07:33:09.996Z,8.10
2017-12-21T07:35:37.517Z,8.10
2017-12-21T07:38:04.930Z,8.10
2017-12-21T07:40:32.362Z,8.10
2017-12-21T07:42:59.769Z,8.10
2017-12-21T07:45:27.180Z,8.10
2017-12-21T07:47:55.379Z,8.10
2017-12-21T07:50:22.782Z,8.10
2017-12-21T07:52:50.264Z,8.10
2017-12-21T07:55:17.676Z,8.10
2017-12-21T07:57:45.110Z,8.10
2017-12-21T08:00:12.533Z,8.10
2017-12-21T08:02:39.990Z,8.10
2017-12-21T08:05:07.457Z,8.10
2017-12-21T08:07:35.675Z,8.10
2017-12-21T08:10:03.113Z,8.10
2017-12-21T08:12:31.282Z,8.10
2017-12-21T08:14:59.458Z,8.10
2017-12-21T08:17:27.650Z,8.20
2017-12-21T08:19:55.826Z,8.10
2017-12-21T08:22:24.062Z,8.20
2017-12-21T08:24:51.547Z,8.20
2017-12-21T08:27:18.990Z,8.20
2017-12-21T08:29:46.398Z,8.20
2017-12-21T08:32:13.804Z,8.20
2017-12-21T08:34:41.265Z,8.20
2017-12-21T08:37:09.460Z,8.20
2017-12-21T08:39:36.961Z,8.20
2017-12-21T08:42:04.370Z,8.20
2017-12-21T08:44:31.818Z,8.20
2017-12-21T08:46:59.281Z,8.20
2017-12-21T08:49:26.697Z,8.20
2017-12-21T08:51:54.106Z,8.20
2017-12-21T08:54:21.514Z,8.30
2017-12-21T08:56:49.839Z,8.30
2017-12-21T08:59:17.989Z,8.30
2017-12-21T09:01:46.169Z,8.30
2017-12-21T09:04:13.602Z,8.30
2017-12-21T09:06:41.027Z,8.30
2017-12-21T09:09:09.326Z,8.30
2017-12-21T09:11:36.765Z,8.30
2017-12-21T09:14:04.166Z,8.40
2017-12-21T09:16:31.642Z,8.40
2017-12-21T09:18:59.102Z,8.40
2017-12-21T09:21:26.531Z,8.40
2017-12-21T09:23:53.950Z,8.40
2017-12-21T09:26:21.361Z,8.40
2017-12-21T09:28:48.806Z,8.40
2017-12-21T09:31:16.259Z,8.50
2017-12-21T09:33:43.674Z,8.40
2017-12-21T09:36:11.105Z,8.50
2017-12-21T09:38:38.652Z,8.50
2017-12-21T09:41:06.810Z,8.50
2017-12-21T09:43:35.013Z,8.50
2017-12-21T09:46:03.173Z,8.50
2017-12-21T09:48:31.406Z,8.50
2017-12-21T09:50:58.823Z,8.50
2017-12-21T09:53:26.259Z,8.60
2017-12-21T09:55:53.653Z,8.60
2017-12-21T09:58:21.066Z,8.60
2017-12-21T10:00:48.482Z,8.60
2017-12-21T10:03:15.890Z,8.60
2017-12-21T10:05:44.204Z,8.60
2017-12-21T10:08:12.356Z,8.60
2017-12-21T10:10:40.598Z,8.60
2017-12-21T10:13:08.002Z,8.60
2017-12-21T10:15:35.422Z,8.60
2017-12-21T10:18:02.871Z,8.60
2017-12-21T10:20:30.278Z,8.60
2017-12-21T10:22:57.690Z,8.60
2017-12-21T10:25:25.900Z,8.60
2017-12-21T10:27:53.310Z,8.60
2017-12-21T10:30:20.723Z,8.60
2017-12-21T10:32:48.198Z,8.60
2017-12-21T10:35:15.626Z,8.60
2017-12-21T10:37:43.077Z,8.60
2017-12-21T10:40:10.493Z,8.60
2017-12-21T10:42:37.894Z,8.50
2017-12-21T10:45:05.327Z,8.60
2017-12-21T10:47:32.812Z,8.60
2017-12-21T10:50:00.229Z,8.60
2017-12-21T10:52:27.753Z,8.60
2017-12-21T10:54:55.177Z,8.60
2017-12-21T10:57:23.355Z,8.70
2017-12-21T10:59:50.787Z,8.70
2017-12-21T11:02:18.225Z,8.70
2017-12-21T11:04:46.391Z,8.70
2017-12-21T11:07:14.585Z,8.70
2017-12-21T11:09:42.755Z,8.80
2017-12-21T11:12:10.177Z,8.80
2017-12-21T11:14:37.598Z,8.80
2017-12-21T11:17:05.014Z,8.80
2017-12-21T11:19:32.422Z,8.80
2017-12-21T11:21:59.864Z,8.80
2017-12-21T11:24:27.283Z,8.80
2017-12-21T11:26:54.794Z,8.80
2017-12-21T11:29:22.261Z,8.80
2017-12-21T11:31:49.666Z,8.90
2017-12-21T11:34:17.094Z,8.90
2017-12-21T11:36:44.512Z,8.90
2017-12-21T11:39:11.926Z,8.90
2017-12-21T11:41:39.322Z,8.80
2017-12-21T11:44:06.752Z,8.80
2017-12-21T11:46:34.229Z,8.90
2017-12-21T11:49:01.698Z,8.90
2017-12-21T11:51:29.166Z,8.80
2017-12-21T11:53:56.643Z,8.80
2017-12-21T11:56:24.799Z,8.80
2017-12-21T11:58:52.966Z,8.90
2017-12-21T12:01:20.502Z,8.80
2017-12-21T12:03:47.976Z,8.80
2017-12-21T12:06:15.401Z,8.90
2017-12-21T12:08:43.601Z,8.90
2017-12-21T12:11:11.026Z,8.80
2017-12-21T12:13:38.435Z,8.90
2017-12-21T12:16:05.911Z,8.90
2017-12-21T12:18:33.320Z,8.90
2017-12-21T12:21:00.747Z,8.90
2017-12-21T12:23:28.145Z,8.80
2017-12-21T12:25:55.568Z,8.80
2017-12-21T12:28:23.047Z,8.80
2017-12-21T12:30:50.452Z,8.80
2017-12-21T12:33:17.878Z,8.70
2017-12-21T12:35:45.294Z,8.70
2017-12-21T12:38:12.726Z,8.80
2017-12-21T12:40:40.136Z,8.70
2017-12-21T12:43:07.548Z,8.70
2017-12-21T12:45:35.134Z,8.80
2017-12-21T12:48:02.523Z,8.70
2017-12-21T12:50:29.951Z,8.70
2017-12-21T12:52:58.125Z,8.70
2017-12-21T12:55:26.352Z,8.70
2017-12-21T12:57:54.494Z,8.80
2017-12-21T13:00:22.730Z,8.80
2017-12-21T13:02:50.165Z,8.80
2017-12-21T13:05:18.562Z,8.80
2017-12-21T13:07:46.045Z,8.80
2017-12-21T13:10:13.449Z,8.80
2017-12-21T13:12:41.705Z,8.90
2017-12-21T13:15:10.120Z,8.80
2017-12-21T13:17:37.552Z,8.80
2017-12-21T13:20:05.012Z,8.80
2017-12-21T13:22:32.422Z,8.80
2017-12-21T13:24:59.858Z,8.80
2017-12-21T13:27:28.034Z,8.80
2017-12-21T13:29:55.467Z,8.80
2017-12-21T13:32:23.087Z,8.80
2017-12-21T13:34:51.241Z,8.80
2017-12-21T13:37:19.421Z,8.80
2017-12-21T13:39:47.746Z,8.80
2017-12-21T13:42:15.951Z,8.80
2017-12-21T13:44:43.355Z,8.80
2017-12-21T13:47:10.790Z,8.80
2017-12-21T13:49:38.228Z,8.80
2017-12-21T13:52:05.702Z,8.80
2017-12-21T13:54:33.128Z,8.80
2017-12-21T13:57:00.525Z,8.80
2017-12-21T13:59:28.016Z,8.80
2017-12-21T14:01:56.177Z,8.70
2017-12-21T14:04:24.362Z,8.70
2017-12-21T14:06:52.582Z,8.70
2017-12-21T14:09:19.987Z,8.70
2017-12-21T14:11:47.394Z,8.70
2017-12-21T14:14:14.822Z,8.60
2017-12-21T14:16:42.354Z,8.60
2017-12-21T14:19:09.780Z,8.70
2017-12-21T14:21:37.957Z,8.70
2017-12-21T14:24:06.133Z,8.70
2017-12-21T14:26:33.577Z,8.70
2017-12-21T14:29:00.993Z,8.70
2017-12-21T14:31:29.200Z,8.60
2017-12-21T14:33:57.391Z,8.60
2017-12-21T14:36:24.859Z,8.60
2017-12-21T14:38:53.022Z,8.50
2017-12-21T14:41:20.528Z,8.50
2017-12-21T14:43:47.951Z,8.50
2017-12-21T14:46:16.167Z,8.50
2017-12-21T14:48:43.565Z,8.50
2017-12-21T14:51:11.217Z,8.50
2017-12-21T14:53:38.676Z,8.50
2017-12-21T14:56:06.107Z,8.40
2017-12-21T14:58:33.518Z,8.30
2017-12-21T15:01:00.942Z,8.40
2017-12-21T15:03:28.367Z,8.30
2017-12-21T15:05:55.896Z,8.30
2017-12-21T15:08:24.067Z,8.30
2017-12-21T15:10:51.579Z,8.30
2017-12-21T15:13:18.987Z,8.30
2017-12-21T15:15:46.898Z,8.30
2017-12-21T15:18:15.089Z,8.30
2017-12-21T15:20:43.282Z,8.30
2017-12-21T15:23:10.727Z,8.30
2017-12-21T15:25:38.127Z,8.30
2017-12-21T15:28:05.597Z,8.30
2017-12-21T15:30:33.085Z,8.30
2017-12-21T15:33:00.506Z,8.40
2017-12-21T15:35:27.925Z,8.30
2017-12-21T15:37:55.354Z,8.30
2017-12-21T15:40:22.763Z,8.30
2017-12-21T15:42:50.209Z,8.20
2017-12-21T15:45:18.365Z,8.20
2017-12-21T15:47:46.552Z,8.10
2017-12-21T15:50:14.753Z,8.20
2017-12-21T15:52:42.178Z,8.20
2017-12-21T15:55:09.606Z,8.20
2017-12-21T15:57:37.170Z,8.20
2017-12-21T16:00:05.321Z,8.10
2017-12-21T16:02:33.526Z,8.20
2017-12-21T16:05:00.940Z,8.10
2017-12-21T16:07:28.355Z,8.20
2017-12-21T16:09:56.581Z,8.10
2017-12-21T16:12:23.999Z,8.20
2017-12-21T16:14:51.402Z,8.20
2017-12-21T16:17:18.814Z,8.10
2017-12-21T16:19:46.337Z,8.10
2017-12-21T16:22:13.810Z,8.10
2017-12-21T16:24:42.355Z,8.00
2017-12-21T16:27:09.874Z,8.00
2017-12-21T16:29:37.297Z,8.00
2017-12-21T16:32:04.705Z,8.00
2017-12-21T16:34:32.178Z,8.00
2017-12-21T16:36:59.586Z,8.00
2017-12-21T16:39:27.005Z,8.00
2017-12-21T16:41:54.421Z,8.00
2017-12-21T16:44:21.842Z,8.00
2017-12-21T16:46:49.257Z,8.10
2017-12-21T16:49:16.682Z,8.00
2017-12-21T16:51:44.099Z,8.00
2017-12-21T16:54:11.538Z,8.00
2017-12-21T16:56:39.007Z,7.90
2017-12-21T16:59:06.462Z,8.00
2017-12-21T17:01:33.870Z,8.00
2017-12-21T17:04:01.293Z,8.00
2017-12-21T17:06:28.741Z,8.00
2017-12-21T17:08:56.950Z,8.00
2017-12-21T17:11:24.414Z,8.00
2017-12-21T17:13:51.835Z,8.00
2017-12-21T17:16:19.251Z,8.00
2017-12-21T17:18:46.659Z,8.00
2017-12-21T17:21:14.097Z,7.90
2017-12-21T17:23:41.521Z,7.90
2017-12-21T17:26:09.713Z,8.00
2017-12-21T17:28:37.920Z,8.00
2017-12-21T17:31:05.427Z,7.90
2017-12-21T17:33:32.810Z,7.90
2017-12-21T17:36:00.451Z,7.90
2017-12-21T17:38:27.910Z,7.90
2017-12-21T17:40:55.481Z,8.00
2017-12-21T17:43:22.963Z,8.00
2017-12-21T17:45:50.371Z,7.90
2017-12-21T17:48:17.804Z,8.00
2017-12-21T17:50:45.368Z,8.00
2017-12-21T17:53:12.931Z,7.90
2017-12-21T17:55:40.410Z,7.90
2017-12-21T17:58:07.837Z,7.90
2017-12-21T18:00:35.246Z,7.80
2017-12-21T18:03:02.671Z,7.80
2017-12-21T18:05:30.901Z,7.80
2017-12-21T18:07:58.318Z,7.70
2017-12-21T18:10:26.550Z,7.80
2017-12-21T18:12:54.002Z,7.70
2017-12-21T18:15:21.425Z,7.80
2017-12-21T18:17:48.849Z,7.80
2017-12-21T18:20:16.262Z,7.80
2017-12-21T18:22:43.673Z,7.80
2017-12-21T18:25:11.090Z,7.80
2017-12-21T18:27:38.608Z,7.80
2017-12-21T18:30:06.024Z,7.70
2017-12-21T18:32:33.452Z,7.80
2017-12-21T18:35:00.857Z,7.80
2017-12-21T18:37:28.300Z,7.70
2017-12-21T18:39:55.714Z,7.70
2017-12-21T18:42:23.130Z,7.70
2017-12-21T18:44:50.565Z,7.60
2017-12-21T18:47:18.762Z,7.50
2017-12-21T18:49:46.178Z,7.50
2017-12-21T18:52:13.619Z,7.40
2017-12-21T18:54:41.042Z,7.40
2017-12-21T18:57:08.447Z,7.40
2017-12-21T18:59:35.861Z,7.30
2017-12-21T19:02:03.281Z,7.30
2017-12-21T19:04:30.718Z,7.30
2017-12-21T19:06:58.142Z,7.30
2017-12-21T19:09:25.590Z,7.30
2017-12-21T19:11:53.054Z,7.20
2017-12-21T19:14:20.503Z,7.20
2017-12-21T19:16:48.685Z,7.20
2017-12-21T19:19:16.866Z,7.10
2017-12-21T19:21:45.050Z,7.10
2017-12-21T19:24:13.234Z,7.10
2017-12-21T19:26:41.429Z,7.10
2017-12-21T19:29:09.618Z,7.00
2017-12-21T19:31:37.827Z,7.00
2017-12-21T19:34:05.233Z,7.00
2017-12-21T19:36:32.658Z,7.00
2017-12-21T19:39:00.131Z,7.10
2017-12-21T19:41:28.287Z,7.10
2017-12-21T19:43:56.461Z,7.10
2017-12-21T19:46:23.966Z,7.00
2017-12-21T19:48:51.457Z,7.10
2017-12-21T19:51:18.862Z,7.10
2017-12-21T19:53:46.274Z,7.00
2017-12-21T19:56:13.748Z,7.10
2017-12-21T19:58:41.173Z,7.10
2017-12-21T20:01:09.408Z,7.20
2017-12-21T20:03:36.815Z,7.20
2017-12-21T20:06:04.243Z,7.20
2017-12-21T20:08:31.654Z,7.20
2017-12-21T20:10:59.088Z,7.10
2017-12-21T20:13:26.509Z,7.10
2017-12-21T20:15:54.742Z,7.00
2017-12-21T20:18:22.914Z,7.00
2017-12-21T20:20:50.333Z,7.00
2017-12-21T20:23:17.747Z,7.00
2017-12-21T20:25:45.182Z,6.90
2017-12-21T20:28:13.406Z,6.90
2017-12-21T20:30:40.886Z,6.90
2017-12-21T20:33:08.394Z,6.90
2017-12-21T20:35:35.919Z,6.90
2017-12-21T20:38:03.410Z,6.90
2017-12-21T20:40:30.845Z,6.90
2017-12-21T20:42:58.271Z,7.00
2017-12-21T20:45:25.790Z,7.00
2017-12-21T20:47:53.204Z,7.00
2017-12-21T20:50:20.638Z,7.00
2017-12-21T20:52:48.051Z,7.00
2017-12-21T20:55:15.489Z,7.00
2017-12-21T20:57:42.913Z,7.10
2017-12-21T21:00:11.118Z,7.10
2017-12-21T21:02:38.562Z,7.10
2017-12-21T21:05:06.766Z,7.20
2017-12-21T21:07:34.182Z,7.20
2017-12-21T21:10:01.766Z,7.20
2017-12-21T21:12:29.286Z,7.20
2017-12-21T21:14:56.695Z,7.20
2017-12-21T21:17:24.131Z,7.30
2017-12-21T21:19:51.550Z,7.30
2017-12-21T21:22:19.783Z,7.40
2017-12-21T21:24:47.242Z,7.30
2017-12-21T21:27:14.696Z,7.40
2017-12-21T21:29:42.175Z,7.40
2017-12-21T21:32:09.613Z,7.40
2017-12-21T21:34:37.052Z,7.40
2017-12-21T21:37:04.471Z,7.40
2017-12-21T21:39:31.895Z,7.40
2017-12-21T21:41:59.339Z,7.50
2017-12-21T21:44:26.794Z,8.00
2017-12-21T21:46:54.276Z,8.50
2017-12-21T21:49:21.711Z,9.10
2017-12-21T21:51:49.211Z,9.10
2017-12-21T21:54:17.435Z,8.70
2017-12-21T21:56:44.868Z,8.70
2017-12-21T21:59:13.082Z,8.20
2017-12-21T22:01:40.527Z,8.20
2017-12-21T22:04:08.036Z,8.10
2017-12-21T22:06:35.525Z,7.90
2017-12-21T22:09:03.747Z,7.80
2017-12-21T22:11:31.198Z,7.80
2017-12-21T22:13:58.633Z,7.70
2017-12-21T22:16:26.927Z,7.60
2017-12-21T22:18:54.364Z,7.60
2017-12-21T22:21:21.770Z,7.60
2017-12-21T22:23:49.221Z,7.90
2017-12-21T22:26:16.681Z,8.30
2017-12-21T22:28:44.187Z,8.30
2017-12-21T22:31:12.378Z,8.90
2017-12-21T22:33:39.843Z,8.90
2017-12-21T22:36:07.342Z,8.70
2017-12-21T22:38:34.833Z,8.60
2017-12-21T22:41:02.289Z,8.40
2017-12-21T22:43:29.778Z,8.20
2017-12-21T22:45:57.188Z,8.10
2017-12-21T22:48:24.691Z,7.90
2017-12-21T22:50:52.120Z,7.90
2017-12-21T22:53:19.538Z,7.80
2017-12-21T22:55:46.977Z,7.80
2017-12-21T22:58:14.390Z,7.70
2017-12-21T23:00:41.914Z,7.70
2017-12-21T23:03:09.329Z,7.70
2017-12-21T23:05:36.738Z,7.60
2017-12-21T23:08:04.141Z,7.60
2017-12-21T23:10:31.571Z,7.60
2017-12-21T23:12:59.048Z,7.60
2017-12-21T23:15:26.466Z,7.60
2017-12-21T23:17:53.941Z,7.60
2017-12-21T23:20:21.357Z,7.60
2017-12-21T23:22:48.770Z,7.50
2017-12-21T23:25:16.186Z,7.50
2017-12-21T23:27:43.665Z,7.50
2017-12-21T23:30:11.137Z,7.50
2017-12-21T23:32:38.598Z,7.50
2017-12-21T23:35:06.067Z,7.50
2017-12-21T23:37:34.226Z,7.50
2017-12-21T23:40:02.406Z,7.50
2017-12-21T23:42:30.616Z,7.50
2017-12-21T23:44:58.040Z,7.50
2017-12-21T23:47:25.471Z,7.50
2017-12-21T23:49:52.893Z,7.50
2017-12-21T23:52:21.115Z,7.50
2017-12-21T23:54:49.298Z,7.50
2017-12-21T23:57:16.734Z,7.40
2017-12-21T23:59:44.234Z,7.50
